^^
Saratoga-Weather Station Historical Data
Daily Summary for March 16, 2021 Units:  English    Metric   Both
Daily Weekly Monthly Yearly Custom
  High: Low: Average:
Temperature: 73.2 °F 63.3 °F 66.7 °F
Dew Point: 61.5 °F 58.8 °F 60.1 °F
Humidity: 86% 67% 79%
Wind Speed: 2.9mph 0mph 0.4mph
Wind Gust: 6mph - -
Wind- - South
Pressure: 30 in 29.9 in -
Precipitation: 0 in    
Historical Graphs
 
 
Tabular Data for March 16, 2021
Time Temperature Dew Point Pressure Wind Wind Speed Wind Gust Humidity Rainfall Rate (Hourly) solar
00:04 73 °F 61.5 °F 30 in Calm   3 mph 67% 0 in 0 W/m2
00:09 73.2 °F 61.5 °F 30 in NW 2 mph 3 mph 67% 0 in 0 W/m2
00:14 73 °F 61.5 °F 30 in West 2.9 mph 6 mph 67% 0 in 0 W/m2
00:19 73 °F 61.5 °F 30 in Calm   3 mph 67% 0 in 0 W/m2
00:24 73 °F 61.5 °F 30 in Calm   5 mph 67% 0 in 0 W/m2
00:29 72.7 °F 61.2 °F 30 in Calm   2 mph 67% 0 in 0 W/m2
00:34 72.3 °F 61.5 °F 30 in WNW 2 mph 2 mph 69% 0 in 0 W/m2
00:39 72.1 °F 61.3 °F 30 in Calm     69% 0 in 0 W/m2
00:44 71.8 °F 61.5 °F 30 in WSW 2 mph 3 mph 70% 0 in 0 W/m2
00:49 71.2 °F 61 °F 30 in WNW 2 mph 3 mph 70% 0 in 0 W/m2
00:54 71.2 °F 61 °F 30 in WNW 0.9 mph 2 mph 70% 0 in 0 W/m2
00:59 71.1 °F 61.2 °F 30 in WNW 0.9 mph 2 mph 71% 0 in 0 W/m2
01:04 70.7 °F 60.8 °F 30 in Calm   2 mph 71% 0 in 0 W/m2
01:09 70.3 °F 60.8 °F 30 in WSW 0.9 mph 2 mph 72% 0 in 0 W/m2
01:14 70.2 °F 60.6 °F 30 in WSW 0.9 mph 2 mph 72% 0 in 0 W/m2
01:19 70 °F 61 °F 30 in SW 0.9 mph 2 mph 73% 0 in 0 W/m2
01:24 69.8 °F 60.8 °F 30 in SSW 0.9 mph 2 mph 73% 0 in 0 W/m2
01:29 69.6 °F 61 °F 30 in Calm   2 mph 74% 0 in 0 W/m2
01:34 69.4 °F 60.8 °F 30 in Calm   1 mph 74% 0 in 0 W/m2
01:39 69.3 °F 60.6 °F 30 in Calm   2 mph 74% 0 in 0 W/m2
01:44 69.1 °F 60.8 °F 30 in SSW 0.9 mph 1 mph 75% 0 in 0 W/m2
01:49 68.7 °F 60.4 °F 30 in SSW 0.9 mph 2 mph 75% 0 in 0 W/m2
01:54 68.5 °F 60.6 °F 30 in Calm     76% 0 in 0 W/m2
01:59 68.4 °F 60.4 °F 30 in Calm   2 mph 76% 0 in 0 W/m2
02:04 68.2 °F 60.3 °F 30 in Calm     76% 0 in 0 W/m2
02:09 68.2 °F 60.6 °F 30 in South 0.9 mph 3 mph 77% 0 in 0 W/m2
02:14 68 °F 60.4 °F 30 in South 0.9 mph 1 mph 77% 0 in 0 W/m2
02:19 68 °F 60.4 °F 30 in Calm   3 mph 77% 0 in 0 W/m2
02:24 67.8 °F 60.3 °F 30 in Calm     77% 0 in 0 W/m2
02:29 67.6 °F 60.6 °F 30 in South 0.9 mph 2 mph 78% 0 in 0 W/m2
02:34 67.5 °F 60.4 °F 30 in Calm     78% 0 in 0 W/m2
02:39 67.3 °F 60.6 °F 30 in Calm     79% 0 in 0 W/m2
02:44 66.9 °F 60.3 °F 30 in South 0.9 mph 1 mph 79% 0 in 0 W/m2
02:49 66.9 °F 60.3 °F 30 in Calm   2 mph 79% 0 in 0 W/m2
02:54 66.7 °F 60.4 °F 30 in Calm     80% 0 in 0 W/m2
02:59 66.7 °F 60.4 °F 30 in Calm   1 mph 80% 0 in 0 W/m2
03:04 66.7 °F 60.4 °F 30 in South 0.9 mph 2 mph 80% 0 in 0 W/m2
03:09 66.6 °F 60.3 °F 30 in Calm     80% 0 in 0 W/m2
03:14 66.6 °F 60.6 °F 30 in Calm   2 mph 81% 0 in 0 W/m2
03:19 66.4 °F 60.4 °F 30 in Calm     81% 0 in 0 W/m2
03:24 66.2 °F 60.3 °F 30 in Calm     81% 0 in 0 W/m2
03:29 66 °F 60.1 °F 30 in Calm   1 mph 81% 0 in 0 W/m2
03:34 65.8 °F 59.9 °F 30 in South 0.9 mph 2 mph 81% 0 in 0 W/m2
03:39 65.8 °F 59.9 °F 30 in South 0.9 mph 1 mph 81% 0 in 0 W/m2
03:44 65.7 °F 60.1 °F 30 in Calm     82% 0 in 0 W/m2
03:49 65.7 °F 60.1 °F 30 in South 0.9 mph 1 mph 82% 0 in 0 W/m2
03:54 65.7 °F 60.1 °F 30 in Calm   2 mph 82% 0 in 0 W/m2
03:59 65.7 °F 60.1 °F 30 in Calm     82% 0 in 0 W/m2
04:05 65.5 °F 59.5 °F 30 in Calm   2 mph 81% 0 in 0 W/m2
04:10 65.5 °F 59.9 °F 30 in Calm     82% 0 in 0 W/m2
04:15 65.3 °F 59.7 °F 30 in Calm   1 mph 82% 0 in 0 W/m2
04:20 65.1 °F 59.5 °F 30 in Calm     82% 0 in 0 W/m2
04:25 64.9 °F 59.4 °F 30 in Calm     82% 0 in 0 W/m2
04:30 64.8 °F 59.2 °F 29.9 in Calm     82% 0 in 0 W/m2
04:35 64.8 °F 59.2 °F 29.9 in Calm     82% 0 in 0 W/m2
04:40 64.6 °F 59.4 °F 29.9 in Calm     83% 0 in 0 W/m2
04:45 64.4 °F 59.2 °F 29.9 in Calm     83% 0 in 0 W/m2
04:50 64.2 °F 59.4 °F 29.9 in Calm     84% 0 in 0 W/m2
04:55 64 °F 59.2 °F 29.9 in Calm     84% 0 in 0 W/m2
05:00 64 °F 59.2 °F 29.9 in Calm     84% 0 in 0 W/m2
05:05 64 °F 59.2 °F 29.9 in Calm     84% 0 in 0 W/m2
05:10 64 °F 59.2 °F 29.9 in Calm     84% 0 in 0 W/m2
05:15 63.9 °F 59.2 °F 29.9 in Calm     85% 0 in 0 W/m2
05:20 63.9 °F 59.2 °F 29.9 in Calm     85% 0 in 0 W/m2
05:25 63.9 °F 59.2 °F 29.9 in Calm     85% 0 in 0 W/m2
05:30 63.9 °F 59.2 °F 29.9 in Calm     85% 0 in 0 W/m2
05:35 63.7 °F 59 °F 29.9 in Calm     85% 0 in 0 W/m2
05:40 63.7 °F 59 °F 29.9 in Calm     85% 0 in 5 W/m2
05:45 63.5 °F 58.8 °F 29.9 in Calm     85% 0 in 5 W/m2
05:50 63.3 °F 59 °F 29.9 in Calm     86% 0 in 7 W/m2
05:55 63.5 °F 59.2 °F 29.9 in Calm     86% 0 in 9 W/m2
06:00 63.5 °F 59.2 °F 29.9 in Calm     86% 0 in 12 W/m2
06:05 63.5 °F 59.2 °F 29.9 in Calm     86% 0 in 14 W/m2
06:10 63.5 °F 59.2 °F 29.9 in Calm     86% 0 in 16 W/m2
06:15 63.7 °F 59.4 °F 29.9 in Calm     86% 0 in 16 W/m2
06:20 63.7 °F 59.4 °F 29.9 in Calm     86% 0 in 18 W/m2
06:25 63.7 °F 59.4 °F 29.9 in Calm     86% 0 in 19 W/m2
06:30 63.5 °F 59.2 °F 29.9 in Calm     86% 0 in 19 W/m2
06:35 63.7 °F 59.4 °F 29.9 in Calm     86% 0 in 21 W/m2
06:40 63.7 °F 59.4 °F 29.9 in Calm     86% 0 in 25 W/m2
06:45 63.7 °F 59.4 °F 29.9 in Calm     86% 0 in 26 W/m2
06:50 63.9 °F 59.5 °F 29.9 in Calm     86% 0 in 32 W/m2
06:55 63.9 °F 59.5 °F 29.9 in Calm   2 mph 86% 0 in 35 W/m2
07:00 64 °F 59.4 °F 29.9 in Calm     85% 0 in 39 W/m2
07:05 64.2 °F 59.4 °F 29.9 in Calm   2 mph 84% 0 in 40 W/m2
07:10 64.4 °F 59.5 °F 29.9 in Calm   1 mph 84% 0 in 42 W/m2
07:15 64.8 °F 59.5 °F 29.9 in South 0.9 mph 2 mph 83% 0 in 49 W/m2
07:20 64.9 °F 59.7 °F 29.9 in Calm   2 mph 83% 0 in 53 W/m2
07:25 64.9 °F 59.4 °F 29.9 in SE 2 mph 2 mph 82% 0 in 58 W/m2
07:30 65.1 °F 59.5 °F 29.9 in ESE 2 mph 3 mph 82% 0 in 65 W/m2
07:35 65.3 °F 59.7 °F 29.9 in ESE 0.9 mph 2 mph 82% 0 in 86 W/m2
07:40 65.5 °F 59.9 °F 29.9 in ESE 2 mph 2 mph 82% 0 in 123 W/m2
07:45 65.7 °F 60.1 °F 29.9 in Calm   2 mph 82% 0 in 135 W/m2
07:50 65.8 °F 59.9 °F 29.9 in SE 0.9 mph 2 mph 81% 0 in 139 W/m2
07:55 66.4 °F 60.4 °F 29.9 in Calm   1 mph 81% 0 in 146 W/m2
08:00 66.7 °F 60.4 °F 29.9 in Calm   2 mph 80% 0 in 176 W/m2
08:05 66.9 °F 60.3 °F 29.9 in East 0.9 mph 3 mph 79% 0 in 214 W/m2
08:10 67.5 °F 60.8 °F 29.9 in East 2 mph 3 mph 79% 0 in 211 W/m2
08:15 67.8 °F 60.6 °F 29.9 in East 0.9 mph 3 mph 78% 0 in 114 W/m2
08:20 68 °F 60.4 °F 29.9 in Calm   2 mph 77% 0 in 91 W/m2
08:25 68.4 °F 60.8 °F 29.9 in ESE 0.9 mph 2 mph 77% 0 in 90 W/m2
08:30 68.7 °F 61.2 °F 29.9 in East 0.9 mph 2 mph 77% 0 in 88 W/m2
08:35 69.3 °F 61.3 °F 29.9 in East 2 mph 2 mph 76% 0 in 86 W/m2
08:40 69.6 °F 61.3 °F 29.9 in ESE 2 mph 3 mph 75% 0 in 90 W/m2
08:45 70.2 °F 61.2 °F 29.9 in ESE 0.9 mph 3 mph 73% 0 in 91 W/m2
Juneau County Weather
Compliments of Weather Underground - 4 mb